createdAt,value
2022-12-08T00:01:09.529Z,93390.50
2022-12-08T00:03:37.103Z,93393.13
2022-12-08T00:06:24.276Z,93395.47
2022-12-08T00:09:09.859Z,93391.25
2022-12-08T00:11:37.257Z,93399.88
2022-12-08T00:14:03.971Z,93390.16
2022-12-08T00:16:30.611Z,93386.84
2022-12-08T00:18:57.260Z,93382.31
2022-12-08T00:21:23.866Z,93381.78
2022-12-08T00:23:50.489Z,93380.38
2022-12-08T00:26:17.131Z,93377.63
2022-12-08T00:28:43.868Z,93376.16
2022-12-08T00:31:12.147Z,93367.91
2022-12-08T00:33:39.303Z,93371.13
2022-12-08T00:36:11.230Z,93364.66
2022-12-08T00:38:38.883Z,93370.13
2022-12-08T00:41:17.182Z,93359.66
2022-12-08T00:43:44.174Z,93363.53
2022-12-08T00:46:12.110Z,93354.41
2022-12-08T00:48:39.064Z,93356.31
2022-12-08T00:51:05.951Z,93353.63
2022-12-08T00:53:32.675Z,93357.00
2022-12-08T00:55:59.351Z,93352.91
2022-12-08T00:58:25.959Z,93344.97
2022-12-08T01:00:52.696Z,93344.00
2022-12-08T01:03:19.472Z,93342.03
2022-12-08T01:05:46.229Z,93342.59
2022-12-08T01:08:12.997Z,93342.59
2022-12-08T01:10:39.805Z,93336.88
2022-12-08T01:13:06.561Z,93333.03
2022-12-08T01:15:33.204Z,93337.84
2022-12-08T01:17:59.870Z,93338.38
2022-12-08T01:20:26.629Z,93338.38
2022-12-08T01:22:53.235Z,93339.69
2022-12-08T01:25:19.913Z,93338.91
2022-12-08T01:27:46.490Z,93330.91
2022-12-08T01:30:13.661Z,93331.81
2022-12-08T01:32:40.234Z,93332.06
2022-12-08T01:35:07.088Z,93325.50
2022-12-08T01:37:33.751Z,93324.97
2022-12-08T01:40:00.344Z,93330.44
2022-12-08T01:42:27.074Z,93321.19
2022-12-08T01:44:57.451Z,93323.00
2022-12-08T01:47:28.072Z,93315.88
2022-12-08T01:49:54.969Z,93325.75
2022-12-08T01:52:37.652Z,93322.91
2022-12-08T01:55:11.630Z,93324.28
2022-12-08T01:57:44.606Z,93327.84
2022-12-08T02:00:14.794Z,93322.03
2022-12-08T02:03:01.889Z,93325.31
2022-12-08T02:05:34.674Z,93319.59
2022-12-08T02:08:06.169Z,93323.56
2022-12-08T02:10:36.541Z,93311.81
2022-12-08T02:13:05.702Z,93317.53
2022-12-08T02:15:37.276Z,93319.88
2022-12-08T02:18:14.614Z,93313.78
2022-12-08T02:20:44.273Z,93317.63
2022-12-08T02:23:31.682Z,93317.63
2022-12-08T02:26:26.162Z,93302.97
2022-12-08T02:28:58.600Z,93302.19
2022-12-08T02:31:54.197Z,93302.28
2022-12-08T02:34:58.821Z,93300.13
2022-12-08T02:37:32.051Z,93292.94
2022-12-08T02:40:25.089Z,93298.31
2022-12-08T02:43:07.398Z,93295.53
2022-12-08T02:45:41.314Z,93283.66
2022-12-08T02:48:09.121Z,93294.75
2022-12-08T02:50:35.814Z,93290.66
2022-12-08T02:56:17.143Z,93287.97
2022-12-08T02:58:55.568Z,93276.72
2022-12-08T03:01:25.062Z,93267.13
2022-12-08T03:04:26.974Z,93267.78
2022-12-08T03:07:04.158Z,93267.19
2022-12-08T03:09:42.605Z,93266.75
2022-12-08T03:12:26.097Z,93267.44
2022-12-08T03:14:55.231Z,93262.84
2022-12-08T03:17:26.111Z,93255.13
2022-12-08T03:19:54.513Z,93258.09
2022-12-08T03:22:24.062Z,93255.31
2022-12-08T03:24:51.646Z,93253.75
2022-12-08T03:27:22.626Z,93258.94
2022-12-08T03:29:52.015Z,93251.78
2022-12-08T03:32:36.497Z,93248.53
2022-12-08T03:35:13.528Z,93246.66
2022-12-08T03:37:41.024Z,93243.38
2022-12-08T03:40:11.998Z,93245.63
2022-12-08T03:42:38.610Z,93240.69
2022-12-08T03:45:06.082Z,93232.97
2022-12-08T03:47:32.779Z,93227.16
2022-12-08T03:49:59.395Z,93227.78
2022-12-08T03:52:25.982Z,93234.44
2022-12-08T03:54:52.695Z,93226.75
2022-12-08T03:57:19.341Z,93219.19
2022-12-08T03:59:45.975Z,93220.69
2022-12-08T04:02:12.698Z,93221.03
2022-12-08T04:04:39.386Z,93222.00
2022-12-08T04:07:06.038Z,93213.44
2022-12-08T04:09:32.673Z,93220.63
2022-12-08T04:11:59.274Z,93218.94
2022-12-08T04:14:26.026Z,93205.47
2022-12-08T04:16:52.747Z,93216.28
2022-12-08T04:19:19.768Z,93209.06
2022-12-08T04:21:46.352Z,93198.28
2022-12-08T04:24:12.979Z,93206.91
2022-12-08T04:26:39.581Z,93203.91
2022-12-08T04:29:06.299Z,93207.19
2022-12-08T04:31:32.988Z,93208.84
2022-12-08T04:33:59.646Z,93205.47
2022-12-08T04:36:26.380Z,93201.03
2022-12-08T04:38:53.238Z,93198.97
2022-12-08T04:41:20.074Z,93196.09
2022-12-08T04:43:46.719Z,93199.22
2022-12-08T04:46:13.472Z,93196.97
2022-12-08T04:48:41.038Z,93190.91
2022-12-08T04:51:15.003Z,93195.31
2022-12-08T04:53:46.285Z,93198.78
2022-12-08T04:56:15.757Z,93193.25
2022-12-08T04:58:42.988Z,93190.91
2022-12-08T05:01:09.824Z,93186.41
2022-12-08T05:03:37.120Z,93191.44
2022-12-08T05:06:04.482Z,93191.25
2022-12-08T05:08:31.355Z,93189.63
2022-12-08T05:11:07.004Z,93183.91
2022-12-08T05:13:33.633Z,93183.72
2022-12-08T05:16:05.178Z,93185.09
2022-12-08T05:18:31.922Z,93180.69
2022-12-08T05:20:58.807Z,93167.78
2022-12-08T05:23:26.172Z,93176.09
2022-12-08T05:25:52.905Z,93172.53
2022-12-08T05:28:40.706Z,93179.81
2022-12-08T05:31:06.226Z,93172.75
2022-12-08T05:33:32.895Z,93169.47
2022-12-08T05:35:59.589Z,93173.63
2022-12-08T05:38:26.237Z,93169.38
2022-12-08T05:40:52.845Z,93177.47
2022-12-08T05:43:19.458Z,93174.59
2022-12-08T05:45:46.227Z,93167.66
2022-12-08T05:48:12.938Z,93166.47
2022-12-08T05:50:40.100Z,93168.59
2022-12-08T05:53:06.679Z,93158.91
2022-12-08T05:55:33.333Z,93157.69
2022-12-08T05:58:03.132Z,93158.19
2022-12-08T06:00:34.921Z,93156.88
2022-12-08T06:03:01.803Z,93167.13
2022-12-08T06:05:28.624Z,93166.47
2022-12-08T06:07:55.315Z,93175.00
2022-12-08T06:10:21.916Z,93178.75
2022-12-08T06:12:48.617Z,93173.09
2022-12-08T06:15:15.362Z,93182.16
2022-12-08T06:17:42.020Z,93175.91
2022-12-08T06:20:09.322Z,93181.59
2022-12-08T06:22:36.666Z,93180.25
2022-12-08T06:25:07.222Z,93179.25
2022-12-08T06:27:36.346Z,93174.22
2022-12-08T06:30:03.517Z,93173.69
2022-12-08T06:32:30.520Z,93179.59
2022-12-08T06:34:57.198Z,93182.16
2022-12-08T06:37:23.819Z,93183.97
2022-12-08T06:39:50.629Z,93171.38
2022-12-08T06:42:35.557Z,93177.69
2022-12-08T06:45:02.189Z,93171.56
2022-12-08T06:47:28.910Z,93184.16
2022-12-08T06:49:55.520Z,93177.38
2022-12-08T06:52:22.116Z,93172.56
2022-12-08T06:54:48.743Z,93176.03
2022-12-08T06:57:15.389Z,93179.16
2022-12-08T06:59:42.020Z,93183.28
2022-12-08T07:02:09.715Z,93188.63
2022-12-08T07:04:36.477Z,93188.28
2022-12-08T07:07:03.289Z,93187.84
2022-12-08T07:09:30.094Z,93183.28
2022-12-08T07:11:56.863Z,93186.84
2022-12-08T07:14:24.917Z,93182.50
2022-12-08T07:16:52.263Z,93187.63
2022-12-08T07:19:19.234Z,93192.31
2022-12-08T07:21:46.019Z,93185.03
2022-12-08T07:24:13.022Z,93192.63
2022-12-08T07:26:39.947Z,93188.50
2022-12-08T07:29:07.117Z,93191.28
2022-12-08T07:31:33.812Z,93187.19
2022-12-08T07:34:00.478Z,93192.88
2022-12-08T07:36:27.340Z,93187.94
2022-12-08T07:38:54.316Z,93194.19
2022-12-08T07:41:24.451Z,93200.53
2022-12-08T07:43:53.493Z,93195.06
2022-12-08T07:46:22.709Z,93187.09
2022-12-08T07:48:49.577Z,93189.59
2022-12-08T07:51:17.169Z,93186.63
2022-12-08T07:53:50.041Z,93198.22
2022-12-08T07:56:20.394Z,93193.06
2022-12-08T07:58:47.069Z,93191.53
2022-12-08T08:01:28.976Z,93185.34
2022-12-08T08:03:57.562Z,93180.06
2022-12-08T08:06:24.321Z,93176.38
2022-12-08T08:08:51.064Z,93183.94
2022-12-08T08:11:21.189Z,93182.91
2022-12-08T08:13:49.009Z,93178.44
2022-12-08T08:16:16.098Z,93178.44
2022-12-08T08:18:43.568Z,93184.25
2022-12-08T08:21:43.322Z,93178.38
2022-12-08T08:23:56.952Z,93177.63
2022-12-08T08:26:23.605Z,93172.66
2022-12-08T08:28:50.278Z,93172.13
2022-12-08T08:31:17.017Z,93160.91
2022-12-08T08:33:43.728Z,93169.31
2022-12-08T08:36:10.908Z,93164.16
2022-12-08T08:38:42.789Z,93169.81
2022-12-08T08:41:10.719Z,93171.81
2022-12-08T08:43:38.810Z,93169.88
2022-12-08T08:46:06.988Z,93177.53
2022-12-08T08:48:33.834Z,93180.47
2022-12-08T08:51:10.510Z,93176.28
2022-12-08T08:53:38.228Z,93176.84
2022-12-08T08:56:15.196Z,93169.75
2022-12-08T08:58:42.194Z,93171.25
2022-12-08T09:01:08.914Z,93171.38
2022-12-08T09:03:35.628Z,93175.03
2022-12-08T09:06:02.343Z,93178.22
2022-12-08T09:08:29.064Z,93173.91
2022-12-08T09:10:55.740Z,93170.41
2022-12-08T09:13:22.442Z,93169.53
2022-12-08T09:15:49.399Z,93160.31
2022-12-08T09:18:16.205Z,93158.59
2022-12-08T09:20:42.842Z,93156.63
2022-12-08T09:23:09.562Z,93150.16
2022-12-08T09:25:36.538Z,93152.88
2022-12-08T09:28:03.332Z,93141.97
2022-12-08T09:30:29.952Z,93141.97
2022-12-08T09:32:56.662Z,93149.63
2022-12-08T09:35:23.356Z,93160.13
2022-12-08T09:37:49.962Z,93154.78
2022-12-08T09:40:20.261Z,93154.59
2022-12-08T09:43:06.023Z,93151.31
2022-12-08T09:45:35.541Z,93152.97
2022-12-08T09:48:17.464Z,93158.19
2022-12-08T09:50:49.677Z,93145.69
2022-12-08T09:53:22.752Z,93146.28
2022-12-08T09:55:56.825Z,93135.13
2022-12-08T09:59:15.291Z,93128.31
2022-12-08T10:01:42.243Z,93125.63
2022-12-08T10:04:26.391Z,93124.19
2022-12-08T10:06:58.785Z,93128.69
2022-12-08T10:09:37.631Z,93116.56
2022-12-08T10:12:18.690Z,93121.50
2022-12-08T10:14:57.525Z,93120.53
2022-12-08T10:17:27.282Z,93111.75
2022-12-08T10:20:07.040Z,93106.38
2022-12-08T10:22:38.704Z,93102.91
2022-12-08T10:25:25.572Z,93096.66
2022-12-08T10:27:54.523Z,93094.63
2022-12-08T10:30:22.360Z,93089.97
2022-12-08T10:32:51.345Z,93095.81
2022-12-08T10:35:20.179Z,93089.03
2022-12-08T10:38:01.232Z,93084.03
2022-12-08T10:40:36.873Z,93080.41
2022-12-08T10:43:07.004Z,93068.63
2022-12-08T10:45:41.811Z,93072.91
2022-12-08T10:48:31.212Z,93073.69
2022-12-08T10:50:59.175Z,93062.63
2022-12-08T10:53:27.169Z,93064.84
2022-12-08T10:56:07.443Z,93058.69
2022-12-08T10:58:46.185Z,93055.16
2022-12-08T11:01:26.620Z,93051.31
2022-12-08T11:04:00.195Z,93044.28
2022-12-08T11:06:32.807Z,93045.38
2022-12-08T11:09:02.570Z,93047.41
2022-12-08T11:11:45.789Z,93039.00
2022-12-08T11:14:45.811Z,93036.97
2022-12-08T11:17:16.538Z,93035.22
2022-12-08T11:19:55.708Z,93028.50
2022-12-08T11:22:25.626Z,93028.88
2022-12-08T11:25:07.335Z,93020.97
2022-12-08T11:27:36.682Z,93030.47
2022-12-08T11:30:18.676Z,93014.41
2022-12-08T11:32:52.951Z,93017.72
2022-12-08T11:35:30.742Z,93018.75
2022-12-08T11:38:21.207Z,93020.97
2022-12-08T11:40:53.288Z,93017.16
2022-12-08T11:43:35.992Z,93006.91
2022-12-08T11:46:15.147Z,93010.19
2022-12-08T11:48:51.454Z,93009.09
2022-12-08T11:51:57.511Z,93003.28
2022-12-08T11:54:30.575Z,93004.53
2022-12-08T11:57:08.586Z,92999.78
2022-12-08T11:59:41.716Z,93012.59
2022-12-08T12:02:15.147Z,93001.25
2022-12-08T12:05:04.671Z,92994.03
2022-12-08T12:07:58.850Z,92999.56
2022-12-08T12:10:48.213Z,92988.28
2022-12-08T12:13:17.514Z,92983.38
2022-12-08T12:16:02.980Z,92978.41
2022-12-08T12:18:29.576Z,92982.50
2022-12-08T12:21:04.955Z,92981.56
2022-12-08T12:23:40.577Z,92980.69
2022-12-08T12:26:16.478Z,92981.13
2022-12-08T12:28:53.188Z,92976.47
2022-12-08T12:31:25.910Z,92979.25
2022-12-08T12:33:56.960Z,92967.44
2022-12-08T12:36:25.423Z,92966.06
2022-12-08T12:39:06.287Z,92975.66
2022-12-08T12:41:41.748Z,92976.38
2022-12-08T12:44:14.128Z,92966.38
2022-12-08T12:46:54.177Z,92963.16
2022-12-08T12:49:39.209Z,92960.06
2022-12-08T12:52:25.741Z,92957.25
2022-12-08T12:54:52.899Z,92952.13
2022-12-08T12:57:19.487Z,92953.59
2022-12-08T13:00:05.564Z,92954.22
2022-12-08T13:02:46.118Z,92952.94
2022-12-08T13:05:19.997Z,92953.66
2022-12-08T13:08:00.761Z,92963.25
2022-12-08T13:10:33.770Z,92962.75
2022-12-08T13:13:12.648Z,92969.56
2022-12-08T13:15:47.006Z,92958.94
2022-12-08T13:18:36.437Z,92961.22
2022-12-08T13:21:09.138Z,92962.22
2022-12-08T13:23:38.920Z,92950.75
2022-12-08T13:26:08.565Z,92961.16
2022-12-08T13:29:03.922Z,92959.63
2022-12-08T13:31:48.315Z,92958.47
2022-12-08T13:34:23.012Z,92950.16
2022-12-08T13:36:57.106Z,92953.22
2022-12-08T13:39:42.063Z,92944.81
2022-12-08T13:42:27.479Z,92945.47
2022-12-08T13:45:33.577Z,92948.16
2022-12-08T13:48:55.909Z,92955.91
2022-12-08T13:53:34.177Z,92940.28
2022-12-08T13:57:16.521Z,92933.81
2022-12-08T13:59:45.282Z,92947.00
2022-12-08T14:02:17.328Z,92945.50
2022-12-08T14:07:33.668Z,92945.09
2022-12-08T14:10:03.600Z,92949.69
2022-12-08T14:12:31.566Z,92958.88
2022-12-08T14:15:03.710Z,92951.97
2022-12-08T14:17:34.151Z,92953.13
2022-12-08T14:20:19.729Z,92945.13
2022-12-08T14:22:46.885Z,92944.19
2022-12-08T14:25:17.722Z,92953.00
2022-12-08T14:27:45.738Z,92941.94
2022-12-08T14:30:13.433Z,92942.22
2022-12-08T14:32:52.595Z,92940.50
2022-12-08T14:35:26.945Z,92940.78
2022-12-08T14:37:59.795Z,92936.16
2022-12-08T14:40:36.199Z,92945.38
2022-12-08T14:43:05.829Z,92946.63
2022-12-08T14:45:34.962Z,92939.78
2022-12-08T14:48:38.637Z,92932.72
2022-12-08T14:51:13.782Z,92927.22
2022-12-08T14:54:02.976Z,92938.97
2022-12-08T14:56:51.742Z,92930.63
2022-12-08T14:59:39.070Z,92927.66
2022-12-08T15:02:26.532Z,92933.97
2022-12-08T15:05:22.712Z,92938.38
2022-12-08T15:07:55.654Z,92936.28
2022-12-08T15:10:29.475Z,92947.09
2022-12-08T15:12:57.526Z,92953.25
2022-12-08T15:15:24.447Z,92947.84
2022-12-08T15:17:58.225Z,92937.88
2022-12-08T15:20:35.414Z,92944.25
2022-12-08T15:23:02.888Z,92943.03
2022-12-08T15:25:29.618Z,92942.41
2022-12-08T15:27:58.828Z,92946.69
2022-12-08T15:30:29.742Z,92943.31
2022-12-08T15:32:56.549Z,92941.31
2022-12-08T15:35:23.275Z,92930.53
2022-12-08T15:37:50.030Z,92932.06
2022-12-08T15:40:21.294Z,92929.34
2022-12-08T15:42:48.794Z,92930.91
2022-12-08T15:45:16.790Z,92927.38
2022-12-08T15:47:45.125Z,92918.13
2022-12-08T15:50:16.649Z,92919.59
2022-12-08T15:52:43.588Z,92918.84
2022-12-08T15:55:15.146Z,92918.84
2022-12-08T15:58:38.273Z,92923.72
2022-12-08T16:00:52.511Z,92912.94
2022-12-08T16:09:23.675Z,92912.78
2022-12-08T16:12:10.306Z,92910.50
2022-12-08T16:17:25.669Z,92920.75
2022-12-08T16:19:52.347Z,92918.78
2022-12-08T16:22:54.148Z,92925.38
2022-12-08T16:25:19.479Z,92921.47
2022-12-08T16:28:23.069Z,92910.63
2022-12-08T16:30:35.944Z,92914.38
2022-12-08T16:33:02.712Z,92903.00
2022-12-08T16:35:29.612Z,92898.03
2022-12-08T16:37:56.256Z,92893.72
2022-12-08T16:40:23.065Z,92886.94
2022-12-08T16:42:50.402Z,92882.59
2022-12-08T16:45:26.122Z,92893.31
2022-12-08T16:47:56.372Z,92890.34
2022-12-08T16:50:28.629Z,92892.81
2022-12-08T16:53:21.799Z,92895.00
2022-12-08T16:55:49.629Z,92895.72
2022-12-08T16:58:18.406Z,92896.72
2022-12-08T17:00:45.615Z,92893.97
2022-12-08T17:03:14.853Z,92889.88
2022-12-08T17:05:41.672Z,92892.44
2022-12-08T17:08:08.375Z,92887.78
2022-12-08T17:10:39.356Z,92886.94
2022-12-08T17:13:06.034Z,92886.13
2022-12-08T17:15:32.763Z,92899.06
2022-12-08T17:17:59.346Z,92900.81
2022-12-08T17:20:28.027Z,92892.28
2022-12-08T17:22:56.678Z,92900.63
2022-12-08T17:25:24.090Z,92906.34
2022-12-08T17:27:51.210Z,92902.34
2022-12-08T17:30:19.015Z,92900.00
2022-12-08T17:32:45.739Z,92905.16
2022-12-08T17:35:13.299Z,92902.41
2022-12-08T17:37:40.521Z,92906.50
2022-12-08T17:40:08.311Z,92902.28
2022-12-08T17:42:35.171Z,92904.88
2022-12-08T17:45:01.799Z,92910.16
2022-12-08T17:47:28.533Z,92909.25
2022-12-08T17:49:56.151Z,92914.94
2022-12-08T17:52:22.838Z,92904.53
2022-12-08T17:54:49.547Z,92913.63
2022-12-08T17:57:16.179Z,92911.97
2022-12-08T17:59:42.873Z,92909.94
2022-12-08T18:02:10.968Z,92906.31
2022-12-08T18:04:37.743Z,92895.44
2022-12-08T18:07:04.497Z,92890.09
2022-12-08T18:09:31.663Z,92901.50
2022-12-08T18:11:58.353Z,92896.84
2022-12-08T18:14:26.012Z,92898.69
2022-12-08T18:16:52.744Z,92905.16
2022-12-08T18:19:19.505Z,92899.03
2022-12-08T18:21:46.201Z,92899.72
2022-12-08T18:24:19.196Z,92913.88
2022-12-08T18:26:46.613Z,92898.84
2022-12-08T18:29:13.371Z,92907.50
2022-12-08T18:31:40.185Z,92902.34
2022-12-08T18:34:06.898Z,92898.63
2022-12-08T18:36:33.653Z,92901.56
2022-12-08T18:39:01.633Z,92896.19
2022-12-08T18:41:31.307Z,92896.03
2022-12-08T18:43:58.088Z,92898.63
2022-12-08T18:46:25.366Z,92892.06
2022-12-08T18:48:52.696Z,92884.38
2022-12-08T18:51:24.413Z,92885.06
2022-12-08T18:53:51.982Z,92880.06
2022-12-08T18:56:27.854Z,92881.09
2022-12-08T18:59:03.617Z,92883.00
2022-12-08T19:01:35.927Z,92878.34
2022-12-08T19:04:27.502Z,92878.34
2022-12-08T19:06:52.571Z,92886.97
2022-12-08T19:09:19.594Z,92878.84
2022-12-08T19:11:46.383Z,92881.47
2022-12-08T19:14:13.106Z,92879.75
2022-12-08T19:16:39.863Z,92878.69
2022-12-08T19:19:06.546Z,92883.94
2022-12-08T19:21:33.491Z,92876.09
2022-12-08T19:24:00.341Z,92872.22
2022-12-08T19:26:28.131Z,92867.28
2022-12-08T19:28:55.104Z,92867.72
2022-12-08T19:31:21.920Z,92855.13
2022-12-08T19:33:48.755Z,92859.00
2022-12-08T19:36:18.319Z,92869.34
2022-12-08T19:39:03.558Z,92858.84
2022-12-08T19:41:49.003Z,92854.25
2022-12-08T19:44:52.296Z,92846.81
2022-12-08T19:47:20.919Z,92853.63
2022-12-08T19:49:47.701Z,92852.66
2022-12-08T19:52:14.430Z,92850.50
2022-12-08T19:54:41.114Z,92860.69
2022-12-08T19:57:07.761Z,92862.25
2022-12-08T19:59:34.388Z,92866.56
2022-12-08T20:02:01.238Z,92867.34
2022-12-08T20:04:28.020Z,92857.00
2022-12-08T20:06:56.608Z,92845.50
2022-12-08T20:09:24.606Z,92852.66
2022-12-08T20:11:54.576Z,92853.03
2022-12-08T20:14:22.952Z,92845.00
2022-12-08T20:16:50.381Z,92849.38
2022-12-08T20:19:17.744Z,92858.19
2022-12-08T20:21:44.577Z,92860.94
2022-12-08T20:24:11.343Z,92862.94
2022-12-08T20:26:38.084Z,92859.81
2022-12-08T20:29:04.767Z,92857.84
2022-12-08T20:31:32.557Z,92853.16
2022-12-08T20:33:59.616Z,92850.75
2022-12-08T20:36:26.361Z,92835.91
2022-12-08T20:38:54.609Z,92839.34
2022-12-08T20:41:23.468Z,92836.25
2022-12-08T20:43:51.139Z,92834.94
2022-12-08T20:46:18.964Z,92832.91
2022-12-08T20:48:45.783Z,92833.78
2022-12-08T20:51:18.099Z,92827.44
2022-12-08T20:53:45.372Z,92837.72
2022-12-08T20:56:22.012Z,92844.03
2022-12-08T20:58:49.600Z,92854.13
2022-12-08T21:01:19.087Z,92845.78
2022-12-08T21:03:46.741Z,92845.06
2022-12-08T21:06:14.667Z,92836.53
2022-12-08T21:08:42.300Z,92842.59
2022-12-08T21:11:10.021Z,92839.72
2022-12-08T21:13:38.203Z,92839.81
2022-12-08T21:16:05.652Z,92834.38
2022-12-08T21:18:38.869Z,92840.16
2022-12-08T21:21:08.900Z,92839.22
2022-12-08T21:23:35.965Z,92838.72
2022-12-08T21:26:03.834Z,92834.66
2022-12-08T21:28:30.698Z,92828.50
2022-12-08T21:30:57.454Z,92830.94
2022-12-08T21:33:24.307Z,92830.59
2022-12-08T21:35:51.646Z,92818.06
2022-12-08T21:38:18.514Z,92821.00
2022-12-08T21:40:45.440Z,92823.59
2022-12-08T21:43:13.644Z,92828.34
2022-12-08T21:45:40.571Z,92831.56
2022-12-08T21:48:11.730Z,92828.88
2022-12-08T21:50:39.032Z,92831.47
2022-12-08T21:53:05.866Z,92825.25
2022-12-08T21:55:32.602Z,92824.28
2022-12-08T21:58:00.972Z,92827.50
2022-12-08T22:00:28.097Z,92824.44
2022-12-08T22:02:55.114Z,92824.97
2022-12-08T22:05:22.008Z,92820.31
2022-12-08T22:07:48.927Z,92817.25
2022-12-08T22:10:15.759Z,92816.22
2022-12-08T22:12:42.618Z,92830.47
2022-12-08T22:15:11.075Z,92822.34
2022-12-08T22:17:43.322Z,92814.03
2022-12-08T22:20:13.024Z,92817.56
2022-12-08T22:22:40.564Z,92813.25
2022-12-08T22:25:11.923Z,92811.88
2022-12-08T22:27:39.657Z,92805.09
2022-12-08T22:30:07.486Z,92803.28
2022-12-08T22:32:37.709Z,92794.13
2022-12-08T22:35:04.677Z,92789.41
2022-12-08T22:37:31.291Z,92787.91
2022-12-08T22:39:58.103Z,92782.94
2022-12-08T22:42:25.007Z,92782.56
2022-12-08T22:44:51.603Z,92777.91
2022-12-08T22:47:18.318Z,92779.25
2022-12-08T22:49:45.208Z,92784.59
2022-12-08T22:52:11.904Z,92776.84
2022-12-08T22:54:38.504Z,92778.56
2022-12-08T22:57:05.233Z,92774.38
2022-12-08T22:59:33.342Z,92780.09
2022-12-08T23:02:00.321Z,92764.16
2022-12-08T23:04:27.410Z,92755.50
2022-12-08T23:06:54.223Z,92756.63
2022-12-08T23:09:21.579Z,92765.28
2022-12-08T23:11:48.423Z,92749.72
2022-12-08T23:14:15.226Z,92755.75
2022-12-08T23:16:42.104Z,92756.63
2022-12-08T23:19:08.831Z,92762.59
2022-12-08T23:21:35.766Z,92743.28
2022-12-08T23:24:03.077Z,92751.25
2022-12-08T23:26:32.527Z,92745.94
2022-12-08T23:28:59.689Z,92751.81
2022-12-08T23:31:27.553Z,92742.97
2022-12-08T23:33:54.940Z,92736.06
2022-12-08T23:36:26.259Z,92724.56
2022-12-08T23:38:54.308Z,92728.69
2022-12-08T23:41:21.060Z,92716.91
2022-12-08T23:43:50.070Z,92720.88
2022-12-08T23:46:19.462Z,92722.81
2022-12-08T23:48:46.515Z,92710.69
2022-12-08T23:51:14.158Z,92723.69
2022-12-08T23:53:41.575Z,92719.38
2022-12-08T23:56:12.124Z,92716.53
2022-12-08T23:58:39.301Z,92716.88
